createdAt,value
2019-05-02T00:03:10.997Z,29.60
2019-05-02T00:08:17.547Z,27.73
2019-05-02T00:13:24.196Z,28.75
2019-05-02T00:18:31.990Z,32.70
2019-05-02T00:23:39.296Z,32.25
2019-05-02T00:28:47.945Z,36.33
2019-05-02T00:33:55.367Z,32.73
2019-05-02T00:39:01.931Z,37.38
2019-05-02T00:44:10.989Z,39.05
2019-05-02T00:49:18.830Z,41.10
2019-05-02T00:54:25.448Z,40.08
2019-05-02T00:59:37.810Z,42.03
2019-05-02T01:04:43.848Z,40.70
2019-05-02T01:09:50.382Z,34.08
2019-05-02T01:14:56.875Z,35.88
2019-05-02T01:20:03.534Z,36.25
2019-05-02T01:25:15.073Z,41.30
2019-05-02T01:30:42.483Z,41.77
2019-05-02T01:36:08.199Z,38.90
2019-05-02T01:41:14.972Z,33.73
2019-05-02T01:46:22.375Z,35.43
2019-05-02T01:51:29.939Z,38.28
2019-05-02T01:56:36.540Z,38.20
2019-05-02T02:01:43.157Z,38.78
2019-05-02T02:06:49.879Z,41.18
2019-05-02T02:11:56.392Z,41.65
2019-05-02T02:17:03.032Z,39.08
2019-05-02T02:22:20.132Z,43.70
2019-05-02T02:27:27.826Z,45.92
2019-05-02T02:32:34.400Z,47.80
2019-05-02T02:37:51.918Z,43.15
2019-05-02T02:42:49.308Z,46.73
2019-05-02T02:47:59.830Z,46.05
2019-05-02T02:53:04.144Z,44.42
2019-05-02T02:58:10.805Z,45.38
2019-05-02T03:03:20.685Z,47.20
2019-05-02T03:08:26.040Z,45.88
2019-05-02T03:14:05.598Z,48.80
2019-05-02T03:19:05.896Z,43.87
2019-05-02T03:24:12.936Z,47.98
2019-05-02T03:29:19.751Z,48.23
2019-05-02T03:34:45.370Z,51.30
2019-05-02T03:39:35.124Z,52.38
2019-05-02T03:44:41.898Z,54.25
2019-05-02T03:49:51.763Z,53.70
2019-05-02T03:54:56.989Z,52.93
2019-05-02T04:00:03.745Z,55.58
2019-05-02T04:05:10.430Z,48.90
2019-05-02T04:10:59.373Z,51.68
2019-05-02T04:16:01.765Z,47.38
2019-05-02T04:21:08.363Z,52.70
2019-05-02T04:26:17.160Z,52.98
2019-05-02T04:31:24.777Z,63.80
2019-05-02T04:36:32.625Z,60.70
2019-05-02T04:41:42.450Z,58.45
2019-05-02T04:46:48.834Z,66.00
2019-05-02T04:52:04.443Z,61.02
2019-05-02T04:57:04.049Z,72.53
2019-05-02T05:02:10.783Z,60.40
2019-05-02T05:07:17.831Z,65.15
2019-05-02T05:12:24.468Z,60.67
2019-05-02T05:17:34.035Z,67.17
2019-05-02T05:22:44.190Z,61.83
2019-05-02T05:27:52.626Z,64.92
2019-05-02T05:32:58.332Z,60.67
2019-05-02T05:38:05.179Z,57.05
2019-05-02T05:43:15.623Z,61.08
2019-05-02T05:48:20.186Z,57.58
2019-05-02T05:53:28.189Z,67.45
2019-05-02T05:58:39.744Z,61.95
2019-05-02T06:03:45.010Z,63.87
2019-05-02T06:08:54.188Z,60.25
2019-05-02T06:13:59.646Z,62.43
2019-05-02T06:19:06.325Z,55.70
2019-05-02T06:24:15.739Z,62.08
2019-05-02T06:29:21.249Z,60.88
2019-05-02T06:34:27.716Z,60.95
2019-05-02T06:39:34.424Z,65.92
2019-05-02T06:44:41.064Z,60.65
2019-05-02T06:49:47.748Z,60.08
2019-05-02T06:54:57.890Z,61.10
2019-05-02T07:00:02.555Z,61.85
2019-05-02T07:05:11.076Z,66.02
2019-05-02T07:10:19.991Z,61.18
2019-05-02T07:15:44.788Z,58.08
2019-05-02T07:20:51.411Z,59.55
2019-05-02T07:26:00.291Z,63.98
2019-05-02T07:31:11.808Z,62.15
2019-05-02T07:36:15.019Z,63.73
2019-05-02T07:41:24.142Z,59.53
2019-05-02T07:46:31.153Z,54.98
2019-05-02T07:51:37.806Z,58.40
2019-05-02T07:56:48.664Z,56.85
2019-05-02T08:01:53.057Z,58.30
2019-05-02T08:06:59.720Z,60.55
2019-05-02T08:12:07.876Z,57.75
2019-05-02T08:17:17.489Z,54.40
2019-05-02T08:22:22.916Z,57.40
2019-05-02T08:27:48.509Z,59.33
2019-05-02T08:32:55.184Z,48.20
2019-05-02T08:38:01.834Z,48.13
2019-05-02T08:43:08.993Z,56.77
2019-05-02T08:48:16.787Z,55.00
2019-05-02T08:53:23.458Z,50.70
2019-05-02T08:58:30.125Z,45.88
2019-05-02T09:03:54.783Z,46.53
2019-05-02T09:08:46.173Z,43.15
2019-05-02T09:13:54.448Z,41.35
2019-05-02T09:19:02.785Z,43.00
2019-05-02T09:24:13.571Z,46.10
2019-05-02T09:29:17.672Z,41.73
2019-05-02T09:34:26.714Z,40.92
2019-05-02T09:39:36.479Z,44.03
2019-05-02T09:44:42.586Z,44.73
2019-05-02T09:49:53.088Z,44.13
2019-05-02T09:54:59.305Z,44.93
2019-05-02T10:00:12.791Z,42.23
2019-05-02T10:10:25.387Z,46.20
2019-05-02T10:15:32.847Z,40.23
2019-05-02T10:20:41.738Z,36.30
2019-05-02T10:25:47.944Z,34.92
2019-05-02T10:30:56.683Z,37.83
2019-05-02T10:36:03.368Z,33.40
2019-05-02T10:41:11.867Z,31.62
2019-05-02T10:46:37.538Z,33.40
2019-05-02T10:51:48.986Z,39.57
2019-05-02T10:56:51.712Z,33.38
2019-05-02T11:02:22.123Z,37.10
2019-05-02T11:07:28.334Z,39.83
2019-05-02T11:12:44.400Z,33.00
2019-05-02T11:17:49.667Z,34.78
2019-05-02T11:22:56.351Z,22.32
2019-05-02T11:28:07.150Z,23.20
2019-05-02T11:33:13.333Z,29.25
2019-05-02T11:38:36.338Z,23.22
2019-05-02T11:43:29.124Z,26.65
2019-05-02T11:48:35.745Z,28.20
2019-05-02T11:53:42.332Z,26.07
2019-05-02T11:58:50.291Z,20.92
2019-05-02T12:03:57.251Z,23.47
2019-05-02T12:09:06.976Z,25.57
2019-05-02T12:14:13.614Z,27.77
2019-05-02T12:19:20.147Z,32.83
2019-05-02T12:24:27.283Z,23.47
2019-05-02T12:29:34.010Z,23.18
2019-05-02T12:34:54.473Z,25.72
2019-05-02T12:40:02.725Z,24.02
2019-05-02T12:45:09.709Z,30.85
2019-05-02T12:50:16.979Z,23.67
2019-05-02T12:55:23.670Z,23.07
2019-05-02T13:00:32.012Z,23.40
2019-05-02T13:05:38.722Z,28.10
2019-05-02T13:11:06.837Z,28.20
2019-05-02T13:16:14.378Z,25.97
2019-05-02T13:21:38.724Z,21.75
2019-05-02T13:26:34.573Z,22.85
2019-05-02T13:31:52.359Z,24.32
2019-05-02T13:37:02.634Z,21.90
2019-05-02T13:42:09.825Z,18.25
2019-05-02T13:47:18.467Z,19.60
2019-05-02T13:52:25.103Z,23.62
2019-05-02T13:57:34.913Z,28.75
2019-05-02T14:02:42.889Z,18.25
2019-05-02T14:07:54.250Z,19.17
2019-05-02T14:13:00.597Z,20.10
2019-05-02T14:18:07.613Z,21.10
2019-05-02T14:23:14.488Z,14.83
2019-05-02T14:28:22.454Z,13.40
2019-05-02T14:33:32.879Z,14.63
2019-05-02T14:38:39.393Z,10.13
2019-05-02T14:43:56.490Z,11.60
2019-05-02T14:49:03.194Z,12.93
2019-05-02T14:54:12.076Z,9.55
2019-05-02T14:59:20.052Z,8.48
2019-05-02T15:04:26.990Z,9.88
2019-05-02T15:09:36.071Z,8.83
2019-05-02T15:14:43.237Z,6.50
2019-05-02T15:19:49.909Z,11.40
2019-05-02T15:24:56.618Z,9.03
2019-05-02T15:30:06.793Z,9.23
2019-05-02T15:35:26.845Z,7.33
2019-05-02T15:45:43.466Z,5.50
2019-05-02T15:50:52.919Z,6.50
2019-05-02T15:55:55.804Z,7.35
2019-05-02T16:01:36.717Z,6.30
2019-05-02T16:06:41.987Z,9.65
2019-05-02T16:11:53.279Z,5.55
2019-05-02T16:17:01.270Z,7.65
2019-05-02T16:22:18.027Z,5.60
2019-05-02T16:27:44.108Z,7.47
2019-05-02T16:32:56.854Z,6.15
2019-05-02T16:38:03.630Z,14.23
2019-05-02T16:43:12.080Z,11.93
2019-05-02T16:48:18.637Z,8.78
2019-05-02T16:53:26.340Z,94.20
2019-05-02T16:58:33.679Z,5.65
2019-05-02T17:03:42.064Z,9.53
2019-05-02T17:09:03.802Z,10.28
2019-05-02T17:14:13.521Z,13.65
2019-05-02T17:19:21.617Z,15.23
2019-05-02T17:24:28.597Z,15.10
2019-05-02T17:29:35.615Z,19.45
2019-05-02T17:34:42.769Z,17.05
2019-05-02T17:39:49.640Z,16.12
2019-05-02T17:45:06.145Z,16.70
2019-05-02T17:50:22.399Z,17.02
2019-05-02T17:55:34.541Z,15.00
2019-05-02T18:00:42.893Z,15.75
2019-05-02T18:05:49.445Z,14.18
2019-05-02T18:11:00.140Z,16.73
2019-05-02T18:16:07.883Z,17.73
2019-05-02T18:21:17.299Z,16.67
2019-05-02T18:26:22.286Z,13.75
2019-05-02T18:31:28.950Z,16.02
2019-05-02T18:36:35.649Z,14.87
2019-05-02T18:41:46.246Z,18.23
2019-05-02T18:46:51.933Z,15.98
2019-05-02T18:51:59.264Z,17.42
2019-05-02T18:57:05.906Z,16.82
2019-05-02T19:02:12.638Z,20.17
2019-05-02T19:07:32.247Z,17.12
2019-05-02T19:12:27.699Z,16.05
2019-05-02T19:17:38.407Z,17.12
2019-05-02T19:22:50.828Z,18.67
2019-05-02T19:27:59.351Z,16.70
2019-05-02T19:33:07.880Z,16.87
2019-05-02T19:38:17.119Z,21.62
2019-05-02T19:43:23.175Z,19.40
2019-05-02T19:48:32.931Z,24.45
2019-05-02T19:53:38.132Z,19.67
2019-05-02T19:58:46.625Z,18.87
2019-05-02T20:04:06.154Z,18.77
2019-05-02T20:09:13.187Z,17.35
2019-05-02T20:14:21.686Z,21.33
2019-05-02T20:19:29.260Z,19.62
2019-05-02T20:25:00.112Z,18.00
2019-05-02T20:30:04.129Z,21.20
2019-05-02T20:35:12.472Z,22.58
2019-05-02T20:40:31.827Z,22.02
2019-05-02T20:45:38.282Z,18.92
2019-05-02T20:50:44.905Z,20.50
2019-05-02T20:55:52.381Z,18.10
2019-05-02T21:01:07.693Z,20.40
2019-05-02T21:06:20.022Z,19.75
2019-05-02T21:11:27.435Z,20.70
2019-05-02T21:16:34.055Z,20.12
2019-05-02T21:21:42.636Z,18.80
2019-05-02T21:26:49.451Z,22.50
2019-05-02T21:31:56.192Z,21.50
2019-05-02T21:37:02.908Z,22.25
2019-05-02T21:42:09.524Z,25.20
2019-05-02T21:47:16.181Z,22.50
2019-05-02T21:52:32.480Z,26.48
2019-05-02T21:57:39.001Z,23.62
2019-05-02T22:02:45.628Z,25.60
2019-05-02T22:07:52.363Z,20.80
2019-05-02T22:12:59.043Z,19.75
2019-05-02T22:18:05.819Z,22.70
2019-05-02T22:23:12.377Z,25.00
2019-05-02T22:28:18.914Z,25.00
2019-05-02T22:33:25.627Z,21.30
2019-05-02T22:39:03.380Z,21.17
2019-05-02T22:44:12.499Z,17.67
2019-05-02T22:49:19.285Z,22.73
2019-05-02T22:54:30.332Z,22.00
2019-05-02T22:59:34.117Z,24.67
2019-05-02T23:04:41.763Z,31.52
2019-05-02T23:09:48.413Z,33.02
2019-05-02T23:14:55.068Z,36.60
2019-05-02T23:20:02.189Z,37.53
2019-05-02T23:25:32.219Z,37.73
2019-05-02T23:30:38.950Z,42.58
2019-05-02T23:35:45.578Z,45.73
2019-05-02T23:40:52.640Z,48.05
2019-05-02T23:45:59.278Z,42.08
2019-05-02T23:51:05.896Z,50.30
2019-05-02T23:56:13.170Z,40.55
